Pagrindinis puslapis
METAR-TAF:

METAR-TAF

Oro uostai :

17 Rosado

Mossoró, Rio Grande do Norte, Brazilija

platuma: 05-12S, ilguma: 037-22W, Aukštis: 23 m

Dabartinis oras

Ataskaita buvo paskelbta 2 valandos ir 8 minutes, ne 21:00 UTC
Vėjas 12 kt iš Šiaurės/Šiaurės Rytų
Temperatūra 28°C
Drėgmė 74%
Slėgis 1010 hPa
Matomumas 10 km arba daugiau
nėra debesų žemiau 1500 m ir nėra kamuolinių lietaus debesų

METAR: SBMS 162100Z 03012KT CAVOK 28/23 Q1010

Laikas: 20:08 (23:08 UTC)


TAF: trūkstamas

Orai ataskaitas ir orų prognozės (METAR, TAF).

turimą stotys yra geltonos ir raudonos taškus žemėlapyje.

Perkelti pele per norėdami pamatyti stoties vardą.

Tada spustelėkite, norėdami matyti oro stebėjimo ir prognozės.

Norėdami pakeisti žemėlapį: spustelėkite ant žalios mygtukų su juodo kryžiaus žemyn,; žalią mygtuką su brūkšneliu, jei norite nutolinti; arba žalių rodyklių gretimoms žemėlapius.


METAR-TAF: